sensor_id;sensor_type;location;lat;lon;timestamp;temperature;humidity
20528;DHT22;23612;50.894;10.700;2023-04-06T00:00:36;-0.60;99.90
20528;DHT22;23612;50.894;10.700;2023-04-06T00:03:02;-0.60;99.90
20528;DHT22;23612;50.894;10.700;2023-04-06T00:05:27;-0.60;99.90
20528;DHT22;23612;50.894;10.700;2023-04-06T00:07:56;-0.60;99.90
20528;DHT22;23612;50.894;10.700;2023-04-06T00:10:22;-0.60;99.90
20528;DHT22;23612;50.894;10.700;2023-04-06T00:12:47;-0.70;99.90
20528;DHT22;23612;50.894;10.700;2023-04-06T00:15:13;-0.80;99.90
20528;DHT22;23612;50.894;10.700;2023-04-06T00:17:38;-0.80;99.90
20528;DHT22;23612;50.894;10.700;2023-04-06T00:20:04;-0.80;99.90
20528;DHT22;23612;50.894;10.700;2023-04-06T00:22:30;-0.80;99.90
20528;DHT22;23612;50.894;10.700;2023-04-06T00:24:55;-0.90;99.90
20528;DHT22;23612;50.894;10.700;2023-04-06T00:27:21;-0.90;99.90
20528;DHT22;23612;50.894;10.700;2023-04-06T00:29:46;-0.90;99.90
20528;DHT22;23612;50.894;10.700;2023-04-06T00:32:12;-1.00;99.90
20528;DHT22;23612;50.894;10.700;2023-04-06T00:34:37;-1.00;99.90
20528;DHT22;23612;50.894;10.700;2023-04-06T00:37:03;-1.10;99.90
20528;DHT22;23612;50.894;10.700;2023-04-06T00:39:28;-1.20;99.90
20528;DHT22;23612;50.894;10.700;2023-04-06T00:41:54;-1.20;99.90
20528;DHT22;23612;50.894;10.700;2023-04-06T00:44:20;-1.30;99.90
20528;DHT22;23612;50.894;10.700;2023-04-06T00:46:46;-1.30;99.90
20528;DHT22;23612;50.894;10.700;2023-04-06T00:49:12;-1.30;99.90
20528;DHT22;23612;50.894;10.700;2023-04-06T00:51:37;-1.40;99.90
20528;DHT22;23612;50.894;10.700;2023-04-06T00:54:03;-1.40;99.90
20528;DHT22;23612;50.894;10.700;2023-04-06T00:56:29;-1.40;99.90
20528;DHT22;23612;50.894;10.700;2023-04-06T00:58:54;-1.40;99.90
20528;DHT22;23612;50.894;10.700;2023-04-06T01:01:20;-1.40;99.90
20528;DHT22;23612;50.894;10.700;2023-04-06T01:03:46;-1.30;99.90
20528;DHT22;23612;50.894;10.700;2023-04-06T01:06:14;-1.30;99.90
20528;DHT22;23612;50.894;10.700;2023-04-06T01:08:40;-1.30;99.90
20528;DHT22;23612;50.894;10.700;2023-04-06T01:11:05;-1.20;99.90
20528;DHT22;23612;50.894;10.700;2023-04-06T01:13:31;-1.20;99.90
20528;DHT22;23612;50.894;10.700;2023-04-06T01:15:56;-1.20;99.90
20528;DHT22;23612;50.894;10.700;2023-04-06T01:18:26;-1.20;99.90
20528;DHT22;23612;50.894;10.700;2023-04-06T01:20:52;-1.20;99.90
20528;DHT22;23612;50.894;10.700;2023-04-06T01:23:17;-1.20;99.90
20528;DHT22;23612;50.894;10.700;2023-04-06T01:25:43;-1.20;99.90
20528;DHT22;23612;50.894;10.700;2023-04-06T01:28:08;-1.20;99.90
20528;DHT22;23612;50.894;10.700;2023-04-06T01:30:34;-1.20;99.90
20528;DHT22;23612;50.894;10.700;2023-04-06T01:32:59;-1.20;99.90
20528;DHT22;23612;50.894;10.700;2023-04-06T01:35:26;-1.20;99.90
20528;DHT22;23612;50.894;10.700;2023-04-06T01:37:52;-1.20;99.90
20528;DHT22;23612;50.894;10.700;2023-04-06T01:40:17;-1.20;99.90
20528;DHT22;23612;50.894;10.700;2023-04-06T01:42:43;-1.10;99.90
20528;DHT22;23612;50.894;10.700;2023-04-06T01:45:09;-1.10;99.90
20528;DHT22;23612;50.894;10.700;2023-04-06T01:47:34;-1.20;99.90
20528;DHT22;23612;50.894;10.700;2023-04-06T01:50:00;-1.20;99.90
20528;DHT22;23612;50.894;10.700;2023-04-06T01:52:25;-1.10;99.90
20528;DHT22;23612;50.894;10.700;2023-04-06T01:54:51;-1.10;99.90
20528;DHT22;23612;50.894;10.700;2023-04-06T01:57:16;-1.10;99.90
20528;DHT22;23612;50.894;10.700;2023-04-06T01:59:42;-1.10;99.90
20528;DHT22;23612;50.894;10.700;2023-04-06T02:02:07;-1.10;99.90
20528;DHT22;23612;50.894;10.700;2023-04-06T02:04:33;-1.00;99.90
20528;DHT22;23612;50.894;10.700;2023-04-06T02:06:58;-1.10;99.90
20528;DHT22;23612;50.894;10.700;2023-04-06T02:09:24;-1.10;99.90
20528;DHT22;23612;50.894;10.700;2023-04-06T02:11:49;-1.10;99.90
20528;DHT22;23612;50.894;10.700;2023-04-06T02:14:15;-1.10;99.90
20528;DHT22;23612;50.894;10.700;2023-04-06T02:16:40;-1.20;99.90
20528;DHT22;23612;50.894;10.700;2023-04-06T02:19:06;-1.20;99.90
20528;DHT22;23612;50.894;10.700;2023-04-06T02:21:32;-1.20;99.90
20528;DHT22;23612;50.894;10.700;2023-04-06T02:23:57;-1.10;99.90
20528;DHT22;23612;50.894;10.700;2023-04-06T02:26:23;-1.10;99.90
20528;DHT22;23612;50.894;10.700;2023-04-06T02:28:48;-1.10;99.90
20528;DHT22;23612;50.894;10.700;2023-04-06T02:31:14;-1.10;99.90
20528;DHT22;23612;50.894;10.700;2023-04-06T02:33:40;-1.10;99.90
20528;DHT22;23612;50.894;10.700;2023-04-06T02:36:06;-1.20;99.90
20528;DHT22;23612;50.894;10.700;2023-04-06T02:38:32;-1.20;99.90
20528;DHT22;23612;50.894;10.700;2023-04-06T02:40:57;-1.20;99.90
20528;DHT22;23612;50.894;10.700;2023-04-06T02:43:23;-1.20;99.90
20528;DHT22;23612;50.894;10.700;2023-04-06T02:45:48;-1.20;99.90
20528;DHT22;23612;50.894;10.700;2023-04-06T02:48:14;-1.20;99.90
20528;DHT22;23612;50.894;10.700;2023-04-06T02:50:39;-1.20;99.90
20528;DHT22;23612;50.894;10.700;2023-04-06T02:53:05;-1.20;99.90
20528;DHT22;23612;50.894;10.700;2023-04-06T02:55:31;-1.20;99.90
20528;DHT22;23612;50.894;10.700;2023-04-06T02:57:56;-1.20;99.90
20528;DHT22;23612;50.894;10.700;2023-04-06T03:00:22;-1.10;99.90
20528;DHT22;23612;50.894;10.700;2023-04-06T03:02:47;-1.10;99.90
20528;DHT22;23612;50.894;10.700;2023-04-06T03:05:13;-1.10;99.90
20528;DHT22;23612;50.894;10.700;2023-04-06T03:07:38;-1.10;99.90
20528;DHT22;23612;50.894;10.700;2023-04-06T03:10:04;-1.20;99.90
20528;DHT22;23612;50.894;10.700;2023-04-06T03:12:30;-1.20;99.90
20528;DHT22;23612;50.894;10.700;2023-04-06T03:14:55;-1.20;99.90
20528;DHT22;23612;50.894;10.700;2023-04-06T03:17:21;-1.10;99.90
20528;DHT22;23612;50.894;10.700;2023-04-06T03:19:46;-1.00;99.90
20528;DHT22;23612;50.894;10.700;2023-04-06T03:22:12;-1.00;99.90
20528;DHT22;23612;50.894;10.700;2023-04-06T03:24:37;-1.10;99.90
20528;DHT22;23612;50.894;10.700;2023-04-06T03:27:02;-1.10;99.90
20528;DHT22;23612;50.894;10.700;2023-04-06T03:29:28;-1.00;99.90
20528;DHT22;23612;50.894;10.700;2023-04-06T03:31:53;-1.00;99.90
20528;DHT22;23612;50.894;10.700;2023-04-06T03:34:19;-1.00;99.90
20528;DHT22;23612;50.894;10.700;2023-04-06T03:36:45;-1.00;99.90
20528;DHT22;23612;50.894;10.700;2023-04-06T03:39:10;-1.00;99.90
20528;DHT22;23612;50.894;10.700;2023-04-06T03:41:36;-1.00;99.90
20528;DHT22;23612;50.894;10.700;2023-04-06T03:44:01;-1.00;99.90
20528;DHT22;23612;50.894;10.700;2023-04-06T03:46:27;-0.90;99.90
20528;DHT22;23612;50.894;10.700;2023-04-06T03:48:52;-0.90;99.90
20528;DHT22;23612;50.894;10.700;2023-04-06T03:51:18;-0.80;99.90
20528;DHT22;23612;50.894;10.700;2023-04-06T03:53:43;-0.80;99.90
20528;DHT22;23612;50.894;10.700;2023-04-06T03:56:09;-0.70;99.90
20528;DHT22;23612;50.894;10.700;2023-04-06T03:58:34;-0.80;99.90
20528;DHT22;23612;50.894;10.700;2023-04-06T04:01:00;-0.70;99.90
20528;DHT22;23612;50.894;10.700;2023-04-06T04:03:25;-0.70;99.90
20528;DHT22;23612;50.894;10.700;2023-04-06T04:05:53;-0.70;99.90
20528;DHT22;23612;50.894;10.700;2023-04-06T04:08:18;-0.70;99.90
20528;DHT22;23612;50.894;10.700;2023-04-06T04:10:44;-0.70;99.90
20528;DHT22;23612;50.894;10.700;2023-04-06T04:13:09;-0.70;99.90
20528;DHT22;23612;50.894;10.700;2023-04-06T04:15:36;-0.70;99.90
20528;DHT22;23612;50.894;10.700;2023-04-06T04:18:01;-0.70;99.90
20528;DHT22;23612;50.894;10.700;2023-04-06T04:20:27;-0.70;99.90
20528;DHT22;23612;50.894;10.700;2023-04-06T04:22:53;-0.70;99.90
20528;DHT22;23612;50.894;10.700;2023-04-06T04:25:19;-0.80;99.90
20528;DHT22;23612;50.894;10.700;2023-04-06T04:27:44;-0.80;99.90
20528;DHT22;23612;50.894;10.700;2023-04-06T04:30:10;-0.80;99.90
20528;DHT22;23612;50.894;10.700;2023-04-06T04:32:35;-0.90;99.90
20528;DHT22;23612;50.894;10.700;2023-04-06T04:35:01;-0.80;99.90
20528;DHT22;23612;50.894;10.700;2023-04-06T04:37:26;-0.90;99.90
20528;DHT22;23612;50.894;10.700;2023-04-06T04:39:52;-0.90;99.90
20528;DHT22;23612;50.894;10.700;2023-04-06T04:42:17;-0.90;99.90
20528;DHT22;23612;50.894;10.700;2023-04-06T04:44:43;-0.90;99.90
20528;DHT22;23612;50.894;10.700;2023-04-06T04:47:08;-0.80;99.90
20528;DHT22;23612;50.894;10.700;2023-04-06T04:49:34;-0.80;99.90
20528;DHT22;23612;50.894;10.700;2023-04-06T04:51:59;-0.80;99.90
20528;DHT22;23612;50.894;10.700;2023-04-06T04:54:25;-0.80;99.90
20528;DHT22;23612;50.894;10.700;2023-04-06T04:56:50;-0.80;99.90
20528;DHT22;23612;50.894;10.700;2023-04-06T04:59:16;-0.80;99.90
20528;DHT22;23612;50.894;10.700;2023-04-06T05:01:42;-0.70;99.90
20528;DHT22;23612;50.894;10.700;2023-04-06T05:04:07;-0.70;99.90
20528;DHT22;23612;50.894;10.700;2023-04-06T05:06:33;-0.60;99.90
20528;DHT22;23612;50.894;10.700;2023-04-06T05:08:58;-0.50;99.90
20528;DHT22;23612;50.894;10.700;2023-04-06T05:11:24;-0.40;99.90
20528;DHT22;23612;50.894;10.700;2023-04-06T05:13:50;-0.30;99.90
20528;DHT22;23612;50.894;10.700;2023-04-06T05:16:16;-0.30;99.90
20528;DHT22;23612;50.894;10.700;2023-04-06T05:18:42;-0.20;99.90
20528;DHT22;23612;50.894;10.700;2023-04-06T05:21:07;0.00;99.90
20528;DHT22;23612;50.894;10.700;2023-04-06T05:23:33;0.40;99.90
20528;DHT22;23612;50.894;10.700;2023-04-06T05:25:58;0.90;99.90
20528;DHT22;23612;50.894;10.700;2023-04-06T05:28:24;1.50;99.90
20528;DHT22;23612;50.894;10.700;2023-04-06T05:30:49;1.90;99.90
20528;DHT22;23612;50.894;10.700;2023-04-06T05:33:15;2.20;99.90
20528;DHT22;23612;50.894;10.700;2023-04-06T05:35:40;2.60;99.90
20528;DHT22;23612;50.894;10.700;2023-04-06T05:38:08;2.80;99.90
20528;DHT22;23612;50.894;10.700;2023-04-06T05:40:35;3.20;99.90
20528;DHT22;23612;50.894;10.700;2023-04-06T05:43:02;3.70;99.90
20528;DHT22;23612;50.894;10.700;2023-04-06T05:45:27;3.90;99.90
20528;DHT22;23612;50.894;10.700;2023-04-06T05:47:53;3.80;99.90
20528;DHT22;23612;50.894;10.700;2023-04-06T05:50:18;3.80;99.90
20528;DHT22;23612;50.894;10.700;2023-04-06T05:52:44;3.60;99.90
20528;DHT22;23612;50.894;10.700;2023-04-06T05:55:11;3.30;99.90
20528;DHT22;23612;50.894;10.700;2023-04-06T05:57:37;3.30;99.90
20528;DHT22;23612;50.894;10.700;2023-04-06T06:00:03;3.70;99.90
20528;DHT22;23612;50.894;10.700;2023-04-06T06:02:32;4.30;99.90
20528;DHT22;23612;50.894;10.700;2023-04-06T06:04:58;4.60;99.90
20528;DHT22;23612;50.894;10.700;2023-04-06T06:07:23;4.70;99.90
20528;DHT22;23612;50.894;10.700;2023-04-06T06:09:49;5.00;99.90
20528;DHT22;23612;50.894;10.700;2023-04-06T06:12:14;5.60;99.90
20528;DHT22;23612;50.894;10.700;2023-04-06T06:14:40;5.90;99.90
20528;DHT22;23612;50.894;10.700;2023-04-06T06:17:05;6.50;99.90
20528;DHT22;23612;50.894;10.700;2023-04-06T06:19:31;7.20;99.90
20528;DHT22;23612;50.894;10.700;2023-04-06T06:21:56;7.80;99.90
20528;DHT22;23612;50.894;10.700;2023-04-06T06:24:22;8.30;99.90
20528;DHT22;23612;50.894;10.700;2023-04-06T06:26:47;8.50;99.90
20528;DHT22;23612;50.894;10.700;2023-04-06T06:29:14;8.90;99.90
20528;DHT22;23612;50.894;10.700;2023-04-06T06:31:40;9.50;99.90
20528;DHT22;23612;50.894;10.700;2023-04-06T06:34:05;10.00;99.90
20528;DHT22;23612;50.894;10.700;2023-04-06T06:36:31;10.70;99.90
20528;DHT22;23612;50.894;10.700;2023-04-06T06:38:57;10.80;99.90
20528;DHT22;23612;50.894;10.700;2023-04-06T06:41:24;11.20;99.90
20528;DHT22;23612;50.894;10.700;2023-04-06T06:43:50;11.50;99.90
20528;DHT22;23612;50.894;10.700;2023-04-06T06:46:15;11.80;99.20
20528;DHT22;23612;50.894;10.700;2023-04-06T06:48:41;12.30;97.60
20528;DHT22;23612;50.894;10.700;2023-04-06T06:51:06;12.30;96.60
20528;DHT22;23612;50.894;10.700;2023-04-06T06:53:32;12.40;96.90
20528;DHT22;23612;50.894;10.700;2023-04-06T06:55:57;12.50;97.00
20528;DHT22;23612;50.894;10.700;2023-04-06T06:58:23;13.00;95.60
20528;DHT22;23612;50.894;10.700;2023-04-06T07:00:48;13.00;94.20
20528;DHT22;23612;50.894;10.700;2023-04-06T07:03:14;13.50;93.10
20528;DHT22;23612;50.894;10.700;2023-04-06T07:05:45;13.80;91.90
20528;DHT22;23612;50.894;10.700;2023-04-06T07:08:14;14.00;90.70
20528;DHT22;23612;50.894;10.700;2023-04-06T07:10:39;14.30;89.90
20528;DHT22;23612;50.894;10.700;2023-04-06T07:13:05;14.90;86.30
20528;DHT22;23612;50.894;10.700;2023-04-06T07:15:30;15.40;83.30
20528;DHT22;23612;50.894;10.700;2023-04-06T07:17:56;15.10;83.00
20528;DHT22;23612;50.894;10.700;2023-04-06T07:20:21;15.30;82.70
20528;DHT22;23612;50.894;10.700;2023-04-06T07:22:47;15.40;80.60
20528;DHT22;23612;50.894;10.700;2023-04-06T07:25:13;15.70;79.60
20528;DHT22;23612;50.894;10.700;2023-04-06T07:27:39;16.20;77.70
20528;DHT22;23612;50.894;10.700;2023-04-06T07:30:05;15.90;76.90
20528;DHT22;23612;50.894;10.700;2023-04-06T07:32:30;15.70;73.90
20528;DHT22;23612;50.894;10.700;2023-04-06T07:34:56;15.90;72.80
20528;DHT22;23612;50.894;10.700;2023-04-06T07:37:22;15.80;72.90
20528;DHT22;23612;50.894;10.700;2023-04-06T07:39:47;15.70;72.60
20528;DHT22;23612;50.894;10.700;2023-04-06T07:42:13;15.90;70.70
20528;DHT22;23612;50.894;10.700;2023-04-06T07:44:38;16.40;70.60
20528;DHT22;23612;50.894;10.700;2023-04-06T07:47:04;15.70;68.40
20528;DHT22;23612;50.894;10.700;2023-04-06T07:49:29;15.10;70.70
20528;DHT22;23612;50.894;10.700;2023-04-06T07:51:56;14.80;71.70
20528;DHT22;23612;50.894;10.700;2023-04-06T07:54:21;15.40;71.50
20528;DHT22;23612;50.894;10.700;2023-04-06T07:56:46;16.40;69.90
20528;DHT22;23612;50.894;10.700;2023-04-06T07:59:12;17.10;68.70
20528;DHT22;23612;50.894;10.700;2023-04-06T08:01:38;18.20;65.60
20528;DHT22;23612;50.894;10.700;2023-04-06T08:04:04;17.30;65.90
20528;DHT22;23612;50.894;10.700;2023-04-06T08:06:30;17.30;67.40
20528;DHT22;23612;50.894;10.700;2023-04-06T08:08:55;17.60;65.60
20528;DHT22;23612;50.894;10.700;2023-04-06T08:11:21;18.40;64.50
20528;DHT22;23612;50.894;10.700;2023-04-06T08:13:46;18.20;63.90
20528;DHT22;23612;50.894;10.700;2023-04-06T08:16:12;18.60;60.80
20528;DHT22;23612;50.894;10.700;2023-04-06T08:18:37;17.90;62.70
20528;DHT22;23612;50.894;10.700;2023-04-06T08:21:03;19.20;56.10
20528;DHT22;23612;50.894;10.700;2023-04-06T08:23:28;19.60;54.10
20528;DHT22;23612;50.894;10.700;2023-04-06T08:25:54;19.50;52.80
20528;DHT22;23612;50.894;10.700;2023-04-06T08:28:20;18.70;53.40
20528;DHT22;23612;50.894;10.700;2023-04-06T08:30:46;18.60;54.10
20528;DHT22;23612;50.894;10.700;2023-04-06T08:33:12;18.30;52.70
20528;DHT22;23612;50.894;10.700;2023-04-06T08:35:37;17.90;53.70
20528;DHT22;23612;50.894;10.700;2023-04-06T08:38:03;17.70;55.30
20528;DHT22;23612;50.894;10.700;2023-04-06T08:40:28;17.20;54.20
20528;DHT22;23612;50.894;10.700;2023-04-06T08:42:59;17.20;54.90
20528;DHT22;23612;50.894;10.700;2023-04-06T08:45:25;17.20;55.00
20528;DHT22;23612;50.894;10.700;2023-04-06T08:47:51;17.10;55.20
20528;DHT22;23612;50.894;10.700;2023-04-06T08:50:18;17.20;55.80
20528;DHT22;23612;50.894;10.700;2023-04-06T08:52:46;17.40;56.50
20528;DHT22;23612;50.894;10.700;2023-04-06T08:55:12;17.60;54.00
20528;DHT22;23612;50.894;10.700;2023-04-06T08:57:38;18.00;54.10
20528;DHT22;23612;50.894;10.700;2023-04-06T09:00:04;18.10;54.00
20528;DHT22;23612;50.894;10.700;2023-04-06T09:02:30;17.90;52.90
20528;DHT22;23612;50.894;10.700;2023-04-06T09:04:56;17.70;53.00
20528;DHT22;23612;50.894;10.700;2023-04-06T09:07:22;17.60;52.20
20528;DHT22;23612;50.894;10.700;2023-04-06T09:09:49;17.30;52.40
20528;DHT22;23612;50.894;10.700;2023-04-06T09:12:33;16.80;53.20
20528;DHT22;23612;50.894;10.700;2023-04-06T09:15:00;17.00;54.20
20528;DHT22;23612;50.894;10.700;2023-04-06T09:17:30;17.20;53.60
20528;DHT22;23612;50.894;10.700;2023-04-06T09:19:58;17.60;52.50
20528;DHT22;23612;50.894;10.700;2023-04-06T09:22:24;17.70;52.70
20528;DHT22;23612;50.894;10.700;2023-04-06T09:24:53;17.50;51.40
20528;DHT22;23612;50.894;10.700;2023-04-06T09:27:36;17.30;53.60
20528;DHT22;23612;50.894;10.700;2023-04-06T09:32:31;18.10;51.90
20528;DHT22;23612;50.894;10.700;2023-04-06T09:35:10;18.30;51.80
20528;DHT22;23612;50.894;10.700;2023-04-06T09:37:35;17.70;50.80
20528;DHT22;23612;50.894;10.700;2023-04-06T09:40:05;18.10;51.60
20528;DHT22;23612;50.894;10.700;2023-04-06T09:42:31;18.70;50.30
20528;DHT22;23612;50.894;10.700;2023-04-06T09:44:57;18.90;49.90
20528;DHT22;23612;50.894;10.700;2023-04-06T09:47:23;19.00;49.70
20528;DHT22;23612;50.894;10.700;2023-04-06T09:49:50;19.10;49.30
20528;DHT22;23612;50.894;10.700;2023-04-06T09:52:20;19.10;50.90
20528;DHT22;23612;50.894;10.700;2023-04-06T09:54:48;19.80;50.40
20528;DHT22;23612;50.894;10.700;2023-04-06T09:57:25;19.70;49.50
20528;DHT22;23612;50.894;10.700;2023-04-06T10:00:01;19.50;48.30
20528;DHT22;23612;50.894;10.700;2023-04-06T10:02:56;19.30;49.90
20528;DHT22;23612;50.894;10.700;2023-04-06T10:05:37;19.90;47.90
20528;DHT22;23612;50.894;10.700;2023-04-06T10:08:07;20.20;47.00
20528;DHT22;23612;50.894;10.700;2023-04-06T10:10:33;20.10;45.50
20528;DHT22;23612;50.894;10.700;2023-04-06T10:13:00;20.30;45.50
20528;DHT22;23612;50.894;10.700;2023-04-06T10:15:28;20.00;45.20
20528;DHT22;23612;50.894;10.700;2023-04-06T10:17:54;19.80;45.80
20528;DHT22;23612;50.894;10.700;2023-04-06T10:20:27;19.40;46.70
20528;DHT22;23612;50.894;10.700;2023-04-06T10:23:05;19.20;48.00
20528;DHT22;23612;50.894;10.700;2023-04-06T10:25:34;19.30;47.50
20528;DHT22;23612;50.894;10.700;2023-04-06T10:28:11;19.20;47.60
20528;DHT22;23612;50.894;10.700;2023-04-06T10:30:42;18.50;47.80
20528;DHT22;23612;50.894;10.700;2023-04-06T10:33:19;18.80;47.30
20528;DHT22;23612;50.894;10.700;2023-04-06T10:35:45;18.60;48.00
20528;DHT22;23612;50.894;10.700;2023-04-06T10:38:11;18.70;48.10
20528;DHT22;23612;50.894;10.700;2023-04-06T10:40:41;19.30;47.70
20528;DHT22;23612;50.894;10.700;2023-04-06T10:43:19;19.20;47.50
20528;DHT22;23612;50.894;10.700;2023-04-06T10:45:45;18.90;47.50
20528;DHT22;23612;50.894;10.700;2023-04-06T10:48:19;19.30;47.20
20528;DHT22;23612;50.894;10.700;2023-04-06T10:50:48;19.50;47.30
20528;DHT22;23612;50.894;10.700;2023-04-06T10:53:21;19.70;46.80
20528;DHT22;23612;50.894;10.700;2023-04-06T10:55:49;19.70;46.50
20528;DHT22;23612;50.894;10.700;2023-04-06T10:58:15;19.10;47.80
20528;DHT22;23612;50.894;10.700;2023-04-06T11:00:48;17.80;48.70
20528;DHT22;23612;50.894;10.700;2023-04-06T11:03:15;18.00;50.40
20528;DHT22;23612;50.894;10.700;2023-04-06T11:05:48;19.70;47.20
20528;DHT22;23612;50.894;10.700;2023-04-06T11:08:46;20.50;45.10
20528;DHT22;23612;50.894;10.700;2023-04-06T11:11:14;20.30;44.50
20528;DHT22;23612;50.894;10.700;2023-04-06T11:13:45;20.60;45.30
20528;DHT22;23612;50.894;10.700;2023-04-06T11:16:18;20.10;46.90
20528;DHT22;23612;50.894;10.700;2023-04-06T11:19:04;20.10;46.80
20528;DHT22;23612;50.894;10.700;2023-04-06T11:21:39;20.00;46.90
20528;DHT22;23612;50.894;10.700;2023-04-06T11:26:48;20.40;47.10
20528;DHT22;23612;50.894;10.700;2023-04-06T11:29:21;21.20;47.40
20528;DHT22;23612;50.894;10.700;2023-04-06T11:31:49;21.60;45.50
20528;DHT22;23612;50.894;10.700;2023-04-06T11:34:21;21.30;45.90
20528;DHT22;23612;50.894;10.700;2023-04-06T11:36:48;21.40;44.80
20528;DHT22;23612;50.894;10.700;2023-04-06T11:39:19;21.60;44.10
20528;DHT22;23612;50.894;10.700;2023-04-06T11:41:53;22.10;42.80
20528;DHT22;23612;50.894;10.700;2023-04-06T11:47:06;21.10;43.70
20528;DHT22;23612;50.894;10.700;2023-04-06T11:49:33;20.80;45.40
20528;DHT22;23612;50.894;10.700;2023-04-06T11:51:59;21.20;44.70
20528;DHT22;23612;50.894;10.700;2023-04-06T11:54:33;21.10;45.90
20528;DHT22;23612;50.894;10.700;2023-04-06T11:56:59;21.70;45.20
20528;DHT22;23612;50.894;10.700;2023-04-06T11:59:26;21.50;43.90
20528;DHT22;23612;50.894;10.700;2023-04-06T12:01:52;20.90;45.50
20528;DHT22;23612;50.894;10.700;2023-04-06T12:04:18;21.40;43.70
20528;DHT22;23612;50.894;10.700;2023-04-06T12:06:44;20.90;43.30
20528;DHT22;23612;50.894;10.700;2023-04-06T12:09:09;21.30;43.70
20528;DHT22;23612;50.894;10.700;2023-04-06T12:11:35;21.60;44.60
20528;DHT22;23612;50.894;10.700;2023-04-06T12:14:00;21.80;41.70
20528;DHT22;23612;50.894;10.700;2023-04-06T12:16:27;21.20;42.20
20528;DHT22;23612;50.894;10.700;2023-04-06T12:18:52;21.10;43.10
20528;DHT22;23612;50.894;10.700;2023-04-06T12:21:18;21.00;44.50
20528;DHT22;23612;50.894;10.700;2023-04-06T12:23:43;20.90;44.70
20528;DHT22;23612;50.894;10.700;2023-04-06T12:26:09;21.70;42.60
20528;DHT22;23612;50.894;10.700;2023-04-06T12:28:34;21.60;43.00
20528;DHT22;23612;50.894;10.700;2023-04-06T12:31:00;21.80;43.60
20528;DHT22;23612;50.894;10.700;2023-04-06T12:33:25;21.20;43.10
20528;DHT22;23612;50.894;10.700;2023-04-06T12:35:51;20.70;43.80
20528;DHT22;23612;50.894;10.700;2023-04-06T12:38:16;20.20;45.20
20528;DHT22;23612;50.894;10.700;2023-04-06T12:40:42;18.50;45.70
20528;DHT22;23612;50.894;10.700;2023-04-06T12:43:07;17.10;47.40
20528;DHT22;23612;50.894;10.700;2023-04-06T12:45:34;17.40;48.50
20528;DHT22;23612;50.894;10.700;2023-04-06T12:47:59;18.40;48.10
20528;DHT22;23612;50.894;10.700;2023-04-06T12:50:25;19.40;48.40
20528;DHT22;23612;50.894;10.700;2023-04-06T12:52:51;20.90;44.30
20528;DHT22;23612;50.894;10.700;2023-04-06T12:55:17;20.80;44.40
20528;DHT22;23612;50.894;10.700;2023-04-06T12:57:43;20.80;44.10
20528;DHT22;23612;50.894;10.700;2023-04-06T13:00:08;20.90;44.10
20528;DHT22;23612;50.894;10.700;2023-04-06T13:02:34;20.80;43.20
20528;DHT22;23612;50.894;10.700;2023-04-06T13:05:00;20.60;43.50
20528;DHT22;23612;50.894;10.700;2023-04-06T13:07:25;20.50;44.30
20528;DHT22;23612;50.894;10.700;2023-04-06T13:09:51;20.20;45.30
20528;DHT22;23612;50.894;10.700;2023-04-06T13:12:17;20.80;44.70
20528;DHT22;23612;50.894;10.700;2023-04-06T13:14:43;20.90;44.50
20528;DHT22;23612;50.894;10.700;2023-04-06T13:17:08;20.80;43.80
20528;DHT22;23612;50.894;10.700;2023-04-06T13:19:34;20.60;44.20
20528;DHT22;23612;50.894;10.700;2023-04-06T13:21:59;20.50;44.10
20528;DHT22;23612;50.894;10.700;2023-04-06T13:24:25;19.40;45.40
20528;DHT22;23612;50.894;10.700;2023-04-06T13:26:50;19.50;44.90
20528;DHT22;23612;50.894;10.700;2023-04-06T13:29:16;19.60;44.80
20528;DHT22;23612;50.894;10.700;2023-04-06T13:31:41;19.20;45.90
20528;DHT22;23612;50.894;10.700;2023-04-06T13:34:07;19.00;45.90
20528;DHT22;23612;50.894;10.700;2023-04-06T13:36:32;18.60;45.80
20528;DHT22;23612;50.894;10.700;2023-04-06T13:38:58;18.60;47.60
20528;DHT22;23612;50.894;10.700;2023-04-06T13:41:25;17.40;47.60
20528;DHT22;23612;50.894;10.700;2023-04-06T13:43:52;16.70;49.40
20528;DHT22;23612;50.894;10.700;2023-04-06T13:46:17;15.80;51.10
20528;DHT22;23612;50.894;10.700;2023-04-06T13:48:43;15.30;52.50
20528;DHT22;23612;50.894;10.700;2023-04-06T13:53:35;15.30;52.70
20528;DHT22;23612;50.894;10.700;2023-04-06T13:56:01;15.60;53.60
20528;DHT22;23612;50.894;10.700;2023-04-06T13:58:26;15.60;53.00
20528;DHT22;23612;50.894;10.700;2023-04-06T14:00:52;15.80;53.00
20528;DHT22;23612;50.894;10.700;2023-04-06T14:03:18;15.80;52.40
20528;DHT22;23612;50.894;10.700;2023-04-06T14:05:45;15.50;50.70
20528;DHT22;23612;50.894;10.700;2023-04-06T14:08:10;15.50;50.50
20528;DHT22;23612;50.894;10.700;2023-04-06T14:10:40;15.50;52.50
20528;DHT22;23612;50.894;10.700;2023-04-06T14:13:07;15.40;52.70
20528;DHT22;23612;50.894;10.700;2023-04-06T14:15:33;15.50;53.90
20528;DHT22;23612;50.894;10.700;2023-04-06T14:17:59;15.40;54.00
20528;DHT22;23612;50.894;10.700;2023-04-06T14:20:25;15.40;53.90
20528;DHT22;23612;50.894;10.700;2023-04-06T14:22:51;15.40;53.30
20528;DHT22;23612;50.894;10.700;2023-04-06T14:25:18;15.20;53.20
20528;DHT22;23612;50.894;10.700;2023-04-06T14:27:43;15.00;52.30
20528;DHT22;23612;50.894;10.700;2023-04-06T14:30:10;14.70;52.80
20528;DHT22;23612;50.894;10.700;2023-04-06T14:32:36;14.50;51.90
20528;DHT22;23612;50.894;10.700;2023-04-06T14:35:03;14.20;52.60
20528;DHT22;23612;50.894;10.700;2023-04-06T14:37:29;14.00;53.90
20528;DHT22;23612;50.894;10.700;2023-04-06T14:39:54;14.00;55.40
20528;DHT22;23612;50.894;10.700;2023-04-06T14:42:20;13.90;54.80
20528;DHT22;23612;50.894;10.700;2023-04-06T14:44:45;13.60;56.10
20528;DHT22;23612;50.894;10.700;2023-04-06T14:47:11;13.30;56.70
20528;DHT22;23612;50.894;10.700;2023-04-06T14:49:40;13.30;56.40
20528;DHT22;23612;50.894;10.700;2023-04-06T14:52:06;13.30;56.90
20528;DHT22;23612;50.894;10.700;2023-04-06T14:54:31;13.40;55.80
20528;DHT22;23612;50.894;10.700;2023-04-06T14:56:57;13.40;56.60
20528;DHT22;23612;50.894;10.700;2023-04-06T14:59:22;13.20;56.30
20528;DHT22;23612;50.894;10.700;2023-04-06T15:01:48;13.20;57.60
20528;DHT22;23612;50.894;10.700;2023-04-06T15:04:13;13.20;57.90
20528;DHT22;23612;50.894;10.700;2023-04-06T15:06:39;13.00;57.90
20528;DHT22;23612;50.894;10.700;2023-04-06T15:09:05;12.80;57.70
20528;DHT22;23612;50.894;10.700;2023-04-06T15:11:30;12.60;58.30
20528;DHT22;23612;50.894;10.700;2023-04-06T15:13:56;12.50;58.20
20528;DHT22;23612;50.894;10.700;2023-04-06T15:16:21;12.40;58.20
20528;DHT22;23612;50.894;10.700;2023-04-06T15:18:47;12.20;59.50
20528;DHT22;23612;50.894;10.700;2023-04-06T15:21:12;12.10;59.50
20528;DHT22;23612;50.894;10.700;2023-04-06T15:23:38;12.00;59.80